Time;durP1;ratioP1;P1;durP2;ratioP2;P2;SDS_P1;SDS_P2;PMS_P1;PMS_P2;Temp;Humidity;BMP_temperature;BMP_pressure;BME280_temperature;BME280_humidity;BME280_pressure;Samples;Min_cycle;Max_cycle;Signal;HPM_P1;HPM_P2
2022/02/24 00:01:30;;;;;;;16.38;2.95;;;;;;;7.53;71.53;101554.34;5053612;28;20469;-75
2022/02/24 00:03:56;;;;;;;12.40;3.00;;;;;;;7.54;71.47;101535.00;5053632;28;20434;-74
2022/02/24 00:06:22;;;;;;;13.68;3.10;;;;;;;7.52;71.88;101526.25;5053716;28;20495;-74
2022/02/24 00:08:47;;;;;;;15.75;3.42;;;;;;;7.51;71.65;101531.56;5054089;28;20056;-74
2022/02/24 00:11:13;;;;;;;20.10;3.10;;;;;;;7.52;71.79;101528.88;5053607;28;20095;-75
2022/02/24 00:13:38;;;;;;;13.25;2.40;;;;;;;7.51;71.86;101531.56;5053628;28;20027;-75
2022/02/24 00:16:04;;;;;;;14.07;2.55;;;;;;;7.47;71.98;101521.97;5053527;28;20080;-76
2022/02/24 00:18:29;;;;;;;12.80;2.60;;;;;;;7.44;72.40;101516.75;5054103;28;20025;-75
2022/02/24 00:20:54;;;;;;;7.70;2.50;;;;;;;7.47;72.35;101509.66;5053482;28;20096;-75
2022/02/24 00:23:20;;;;;;;14.43;2.70;;;;;;;7.46;72.36;101517.59;5053622;28;20033;-74
2022/02/24 00:25:45;;;;;;;11.05;2.50;;;;;;;7.45;72.54;101511.44;5053182;28;20037;-75
2022/02/24 00:28:10;;;;;;;11.93;2.55;;;;;;;7.48;72.38;101497.34;5053742;28;20037;-75
2022/02/24 00:30:35;;;;;;;12.13;2.70;;;;;;;7.47;72.52;101464.84;5053670;28;20049;-76
2022/02/24 00:33:01;;;;;;;13.10;2.75;;;;;;;7.48;72.13;101482.41;5052974;28;20032;-75
2022/02/24 00:35:26;;;;;;;11.68;2.53;;;;;;;7.50;72.34;101493.78;5053068;28;20488;-76
2022/02/24 00:37:52;;;;;;;10.57;2.47;;;;;;;7.52;72.01;101496.41;5053542;28;20029;-75
2022/02/24 00:40:17;;;;;;;15.10;2.60;;;;;;;7.48;72.32;101495.59;5053336;28;20048;-75
2022/02/24 00:42:42;;;;;;;12.57;2.58;;;;;;;7.50;72.17;101500.81;5052829;28;20044;-76
2022/02/24 00:45:08;;;;;;;14.63;2.40;;;;;;;7.51;72.21;101506.06;5053378;28;20067;-75
2022/02/24 00:47:33;;;;;;;7.60;2.10;;;;;;;7.52;71.85;101494.63;5052613;28;20033;-75
2022/02/24 00:49:59;;;;;;;11.35;3.03;;;;;;;7.54;72.03;101486.66;5053275;28;20021;-75
2022/02/24 00:52:24;;;;;;;16.63;2.67;;;;;;;7.53;72.01;101492.84;5053181;28;20460;-75
2022/02/24 00:54:49;;;;;;;11.75;2.50;;;;;;;7.54;71.66;101492.81;5052869;28;21627;-75
2022/02/24 00:57:15;;;;;;;10.45;2.58;;;;;;;7.55;71.83;101485.78;5052552;28;20111;-75
2022/02/24 00:59:40;;;;;;;7.88;2.50;;;;;;;7.54;72.43;101466.47;5053254;28;20025;-74
2022/02/24 01:02:06;;;;;;;11.48;2.42;;;;;;;7.53;72.25;101484.94;5052718;28;20025;-75
2022/02/24 01:04:31;;;;;;;10.73;2.58;;;;;;;7.48;72.89;101469.25;5052771;28;20063;-75
2022/02/24 01:06:56;;;;;;;11.00;2.58;;;;;;;7.50;72.96;101466.56;5052712;28;20480;-75
2022/02/24 01:09:22;;;;;;;11.60;2.65;;;;;;;7.53;72.57;101458.56;5053088;28;20025;-75
2022/02/24 01:11:47;;;;;;;13.30;2.42;;;;;;;7.52;73.05;101456.88;5053043;28;20103;-75
2022/02/24 01:14:12;;;;;;;11.57;2.67;;;;;;;7.51;72.83;101434.03;5052608;28;20032;-75
2022/02/24 01:16:38;;;;;;;10.52;2.40;;;;;;;7.57;73.14;101457.63;5052964;28;20036;-75
2022/02/24 01:19:04;;;;;;;18.38;3.63;;;;;;;7.51;73.77;101447.22;5052424;28;20472;-75
2022/02/24 01:21:29;;;;;;;12.48;2.33;;;;;;;7.53;73.75;101453.31;5053270;28;20082;-74
2022/02/24 01:23:55;;;;;;;11.00;2.80;;;;;;;7.51;74.11;101450.72;5052557;28;20033;-75
2022/02/24 01:26:20;;;;;;;14.73;2.42;;;;;;;7.49;74.33;101451.66;5052535;28;20112;-75
2022/02/24 01:28:45;;;;;;;13.27;3.03;;;;;;;7.54;74.20;101449.78;5052288;28;20430;-75
2022/02/24 01:31:13;;;;;;;11.13;2.50;;;;;;;7.54;74.47;101421.66;5052831;28;20438;-76
2022/02/24 01:33:39;;;;;;;10.40;2.55;;;;;;;7.57;74.38;101433.03;5052565;28;20367;-75
2022/02/24 01:36:04;;;;;;;16.27;2.75;;;;;;;7.53;74.57;101425.19;5052271;28;20029;-75
2022/02/24 01:38:30;;;;;;;12.73;2.78;;;;;;;7.50;75.13;101421.75;5052692;28;20511;-75
2022/02/24 01:40:55;;;;;;;13.75;2.60;;;;;;;7.51;75.34;101405.06;5052271;28;20485;-75
2022/02/24 01:43:20;;;;;;;9.38;2.42;;;;;;;7.52;75.48;101410.28;5052909;28;20056;-75
2022/02/24 01:45:46;;;;;;;13.45;2.67;;;;;;;7.51;75.75;101405.06;5052213;28;20039;-75
2022/02/24 01:48:11;;;;;;;16.58;3.03;;;;;;;7.53;75.71;101392.69;5052586;28;20025;-75
2022/02/24 01:50:39;;;;;;;10.70;2.45;;;;;;;7.51;76.27;101391.88;5051939;28;20041;-75
2022/02/24 01:53:05;;;;;;;11.23;2.80;;;;;;;7.50;76.40;101390.13;5052484;28;20524;-75
2022/02/24 01:55:30;;;;;;;10.68;2.38;;;;;;;7.49;76.20;101365.56;5054505;28;20059;-75
2022/02/24 01:57:56;;;;;;;14.68;3.72;;;;;;;7.46;76.98;101378.78;5056303;28;20105;-75
2022/02/24 02:00:24;;;;;;;11.43;2.60;;;;;;;7.47;77.11;101369.13;5055843;28;20128;-75
2022/02/24 02:02:49;;;;;;;10.38;2.40;;;;;;;7.48;76.95;101376.13;5056302;28;20028;-75
2022/02/24 02:05:15;;;;;;;13.40;2.92;;;;;;;7.48;77.21;101355.91;5055721;28;20071;-75
2022/02/24 02:07:41;;;;;;;10.82;3.22;;;;;;;7.46;77.51;101362.13;5056245;28;20127;-75
2022/02/24 02:10:06;;;;;;;12.35;2.58;;;;;;;7.44;77.96;101353.38;5056205;28;20028;-74
2022/02/24 02:12:32;;;;;;;11.23;2.72;;;;;;;7.44;77.92;101348.97;5055726;28;20032;-74
2022/02/24 02:14:57;;;;;;;11.15;2.85;;;;;;;7.42;77.99;101344.63;5056074;28;20033;-73
2022/02/24 02:17:22;;;;;;;9.63;2.60;;;;;;;7.40;78.07;101339.41;5054705;28;20707;-75
2022/02/24 02:19:48;;;;;;;8.45;2.55;;;;;;;7.45;78.11;101353.34;5055762;28;20033;-74
2022/02/24 02:22:13;;;;;;;11.20;2.67;;;;;;;7.46;77.69;101346.31;5055510;28;20017;-74
2022/02/24 02:24:38;;;;;;;11.82;2.30;;;;;;;7.45;77.91;101348.06;5055815;28;20025;-73
2022/02/24 02:27:04;;;;;;;9.32;2.53;;;;;;;7.48;78.09;101347.13;5054175;28;20032;-73
2022/02/24 02:29:29;;;;;;;13.23;2.70;;;;;;;7.45;78.12;101340.16;5055979;28;20073;-75
2022/02/24 02:31:54;;;;;;;9.95;2.70;;;;;;;7.45;78.00;101336.69;5055733;28;20032;-75
2022/02/24 02:34:20;;;;;;;7.40;2.33;;;;;;;7.41;78.62;101338.50;5055451;28;20365;-74
2022/02/24 02:36:47;;;;;;;15.43;3.00;;;;;;;7.42;78.46;101327.06;5055179;28;20386;-74
2022/02/24 02:39:14;;;;;;;10.52;2.60;;;;;;;7.45;78.28;101328.78;5055835;28;20025;-75
2022/02/24 02:41:42;;;;;;;11.10;2.40;;;;;;;7.44;78.18;101322.63;5053346;28;20041;-74
2022/02/24 02:44:09;;;;;;;10.75;2.75;;;;;;;7.45;78.43;101326.97;5055262;28;20052;-74
2022/02/24 02:46:35;;;;;;;11.13;2.70;;;;;;;7.42;78.04;101320.91;5055490;28;20025;-74
2022/02/24 02:49:00;;;;;;;11.98;2.70;;;;;;;7.41;78.45;101327.13;5055131;28;20495;-74
2022/02/24 02:51:26;;;;;;;10.75;2.55;;;;;;;7.42;78.61;101308.63;5055203;28;20033;-73
2022/02/24 02:53:51;;;;;;;11.45;2.92;;;;;;;7.49;77.57;101317.25;5054999;28;20393;-75
2022/02/24 02:56:17;;;;;;;8.68;2.38;;;;;;;7.44;78.57;101298.03;5054753;28;20043;-72
2022/02/24 02:58:42;;;;;;;12.00;2.55;;;;;;;7.45;78.01;101292.72;5054925;28;20037;-73
2022/02/24 03:01:07;;;;;;;11.73;2.95;;;;;;;7.48;77.75;101287.41;5055255;28;20031;-74
2022/02/24 03:03:33;;;;;;;10.40;2.40;;;;;;;7.44;78.56;101271.69;5055225;28;20035;-74
2022/02/24 03:05:58;;;;;;;12.82;2.80;;;;;;;7.44;78.01;101275.19;5053479;28;20063;-74
2022/02/24 03:08:24;;;;;;;10.75;2.42;;;;;;;7.42;77.89;101274.38;5054194;28;20021;-75
2022/02/24 03:10:51;;;;;;;15.45;3.25;;;;;;;7.40;77.91;101275.31;5054449;28;20472;-75
2022/02/24 03:13:17;;;;;;;11.73;2.85;;;;;;;7.41;78.35;101277.06;5055122;28;20044;-75
2022/02/24 03:15:43;;;;;;;12.98;2.97;;;;;;;7.41;78.28;101269.16;5054578;28;20029;-75
2022/02/24 03:18:09;;;;;;;10.45;2.70;;;;;;;7.37;78.61;101256.03;5054688;28;20025;-72
2022/02/24 03:20:34;;;;;;;12.45;2.45;;;;;;;7.37;78.31;101229.69;5054701;28;20025;-73
2022/02/24 03:23:01;;;;;;;12.90;2.65;;;;;;;7.34;78.66;101248.22;5053651;28;20048;-74
2022/02/24 03:25:27;;;;;;;8.95;2.30;;;;;;;7.34;78.84;101247.34;5054293;28;20021;-73
2022/02/24 03:27:56;;;;;;;10.48;2.45;;;;;;;7.35;78.71;101234.16;5054831;28;20028;-73
2022/02/24 03:30:23;;;;;;;7.68;2.42;;;;;;;7.37;78.27;101229.69;5054424;28;20033;-74
2022/02/24 03:32:49;;;;;;;11.95;2.65;;;;;;;7.36;78.68;101240.28;5054830;28;20020;-74
2022/02/24 03:35:16;;;;;;;14.82;2.75;;;;;;;7.37;78.17;101231.47;5054516;28;20060;-75
2022/02/24 03:37:41;;;;;;;10.25;2.30;;;;;;;7.39;78.28;101234.91;5053787;28;20087;-75
2022/02/24 03:40:08;;;;;;;12.95;2.50;;;;;;;7.35;78.66;101239.41;5054060;28;20037;-75
2022/02/24 03:42:33;;;;;;;11.05;2.67;;;;;;;7.33;78.93;101240.34;5054453;28;20457;-75
2022/02/24 03:44:59;;;;;;;12.18;2.80;;;;;;;7.31;79.53;101240.38;5054461;28;20021;-75
2022/02/24 03:47:25;;;;;;;17.17;2.95;;;;;;;7.31;79.95;101221.06;5053682;28;20465;-74
2022/02/24 03:49:51;;;;;;;11.90;2.80;;;;;;;7.31;79.79;101235.09;5054474;28;20447;-75
2022/02/24 03:52:17;;;;;;;10.43;2.55;;;;;;;7.29;80.03;101215.84;5053789;28;20037;-75
2022/02/24 03:54:44;;;;;;;10.60;2.67;;;;;;;7.29;80.12;101225.50;5054276;28;20052;-74
2022/02/24 03:57:09;;;;;;;16.08;3.03;;;;;;;7.27;80.61;101219.44;5054230;28;20521;-73
2022/02/24 03:59:36;;;;;;;10.43;2.60;;;;;;;7.29;80.51;101214.97;5053864;28;20043;-73
2022/02/24 04:02:01;;;;;;;10.13;2.72;;;;;;;7.26;80.81;101213.28;5053474;28;20033;-74
2022/02/24 04:04:26;;;;;;;12.23;2.83;;;;;;;7.25;81.07;101192.25;5054052;28;20082;-74
2022/02/24 04:06:52;;;;;;;14.40;3.83;;;;;;;7.26;80.69;101205.38;5053929;28;20074;-75
2022/02/24 04:09:17;;;;;;;18.50;3.10;;;;;;;7.25;80.25;101197.53;5053339;28;20122;-73
2022/02/24 04:11:42;;;;;;;11.95;3.50;;;;;;;7.25;80.37;101195.78;5053671;28;20148;-74
2022/02/24 04:14:08;;;;;;;7.53;2.45;;;;;;;7.25;80.65;101202.78;5053876;28;20392;-74
2022/02/24 04:16:33;;;;;;;9.85;3.17;;;;;;;7.26;80.62;101199.25;5053774;28;20029;-75
2022/02/24 04:18:58;;;;;;;12.13;3.00;;;;;;;7.21;80.77;101188.81;5053215;28;20032;-74
2022/02/24 04:21:23;;;;;;;11.55;3.25;;;;;;;7.21;81.13;101199.34;5053490;28;20112;-74
2022/02/24 04:23:49;;;;;;;13.23;3.10;;;;;;;7.22;81.04;101185.28;5053155;28;20361;-74
2022/02/24 04:26:14;;;;;;;14.43;3.00;;;;;;;7.20;81.15;101187.13;5053791;28;20028;-74
2022/02/24 04:28:39;;;;;;;9.02;2.67;;;;;;;7.20;80.81;101181.84;5053648;28;20492;-75
2022/02/24 04:31:05;;;;;;;9.18;3.00;;;;;;;7.17;81.09;101182.78;5053349;28;20025;-74
2022/02/24 04:33:30;;;;;;;11.70;3.10;;;;;;;7.15;81.56;101186.38;5053003;28;20032;-75
2022/02/24 04:35:56;;;;;;;8.25;2.50;;;;;;;7.09;81.89;101184.72;5053400;28;20025;-75
2022/02/24 04:38:21;;;;;;;8.73;2.72;;;;;;;7.12;82.08;101182.00;5053442;28;20465;-75
2022/02/24 04:40:46;;;;;;;11.32;2.65;;;;;;;7.16;82.18;101180.16;5052741;28;20120;-75
2022/02/24 04:43:12;;;;;;;11.82;2.70;;;;;;;7.16;82.10;101186.31;5053000;28;20060;-74
2022/02/24 04:45:37;;;;;;;13.02;2.90;;;;;;;7.15;82.15;101181.09;5053299;28;20029;-74
2022/02/24 04:48:03;;;;;;;11.35;2.70;;;;;;;7.13;82.33;101170.56;5053204;28;20025;-74
2022/02/24 04:50:28;;;;;;;11.85;2.60;;;;;;;7.12;82.07;101175.91;5053018;28;20033;-74
2022/02/24 04:52:53;;;;;;;12.05;2.85;;;;;;;7.15;82.13;101167.94;5053398;28;20028;-75
2022/02/24 04:55:19;;;;;;;8.15;2.40;;;;;;;7.13;82.56;101167.94;5052211;28;20124;-74
2022/02/24 04:57:44;;;;;;;10.07;2.70;;;;;;;7.11;82.83;101167.13;5053415;28;20103;-75
2022/02/24 05:00:10;;;;;;;11.68;2.95;;;;;;;7.13;82.87;101159.19;5053289;28;20025;-73
2022/02/24 05:02:35;;;;;;;15.02;2.92;;;;;;;7.15;82.72;101162.66;5052660;28;20024;-73
2022/02/24 05:05:02;;;;;;;10.93;2.92;;;;;;;7.13;83.21;101157.41;5052636;28;20154;-75
2022/02/24 05:07:27;;;;;;;13.05;2.80;;;;;;;7.14;83.11;101148.63;5052937;28;20063;-74
2022/02/24 05:09:52;;;;;;;13.63;3.15;;;;;;;7.17;83.01;101148.56;5052802;28;20056;-75
2022/02/24 05:12:18;;;;;;;12.65;2.80;;;;;;;7.17;82.87;101138.03;5052180;28;20446;-74
2022/02/24 05:14:43;;;;;;;14.45;2.97;;;;;;;7.18;83.31;101136.22;5052811;28;20498;-75
2022/02/24 05:17:08;;;;;;;19.35;3.25;;;;;;;7.16;83.24;101128.38;5052867;28;20029;-74
2022/02/24 05:19:34;;;;;;;13.70;2.85;;;;;;;7.15;83.18;101124.00;5052909;28;20036;-74
2022/02/24 05:21:59;;;;;;;13.05;3.13;;;;;;;7.17;83.20;101118.69;5051073;28;20431;-75
2022/02/24 05:24:24;;;;;;;8.40;2.72;;;;;;;7.19;82.75;101122.16;5052383;28;20431;-74
2022/02/24 05:26:50;;;;;;;13.82;3.13;;;;;;;7.16;83.09;101117.84;5052668;28;20427;-75
2022/02/24 05:29:15;;;;;;;10.20;2.92;;;;;;;7.18;82.82;101097.59;5053003;28;20415;-75
2022/02/24 05:31:40;;;;;;;12.25;3.03;;;;;;;7.19;83.21;101103.72;5056400;28;20460;-73
2022/02/24 05:34:06;;;;;;;10.77;2.95;;;;;;;7.22;82.63;101083.44;5055574;28;20056;-74
2022/02/24 05:36:31;;;;;;;10.07;2.75;;;;;;;7.22;82.78;101093.97;5056832;28;20064;-74
2022/02/24 05:38:57;;;;;;;12.27;2.50;;;;;;;7.24;82.32;101085.16;5056769;28;20033;-74
2022/02/24 05:41:24;;;;;;;14.23;2.80;;;;;;;7.22;82.10;101090.47;5046911;28;20131;-75
2022/02/24 05:43:51;;;;;;;12.43;2.97;;;;;;;7.24;81.93;101080.75;5054950;28;20497;-74
2022/02/24 05:46:17;;;;;;;14.13;2.95;;;;;;;7.24;81.86;101079.88;5056657;28;20025;-74
2022/02/24 05:48:42;;;;;;;12.23;2.72;;;;;;;7.26;82.33;101057.88;5056577;28;20083;-73
2022/02/24 05:51:10;;;;;;;8.40;2.92;;;;;;;7.26;81.69;101054.38;5056547;28;20032;-74
2022/02/24 05:53:35;;;;;;;11.70;2.80;;;;;;;7.28;81.71;101048.16;5055526;28;20029;-75
2022/02/24 05:56:01;;;;;;;7.68;2.40;;;;;;;7.32;81.75;101059.47;5056308;28;20029;-75
2022/02/24 05:58:26;;;;;;;16.45;3.35;;;;;;;7.27;81.93;101049.06;5056201;28;20021;-75
2022/02/24 06:00:51;;;;;;;10.40;2.90;;;;;;;7.27;81.92;101040.31;5056304;28;20358;-75
2022/02/24 06:03:17;;;;;;;12.82;2.90;;;;;;;7.27;81.72;101038.53;5055932;28;20029;-74
2022/02/24 06:05:42;;;;;;;13.82;3.28;;;;;;;7.26;82.06;101039.41;5055972;28;20033;-73
2022/02/24 06:08:07;;;;;;;7.88;2.38;;;;;;;7.28;82.10;101047.31;5056100;28;20028;-75
2022/02/24 06:10:33;;;;;;;9.88;2.78;;;;;;;7.25;82.05;101035.09;5056317;28;20028;-76
2022/02/24 06:12:58;;;;;;;7.75;2.53;;;;;;;7.24;82.20;101038.63;5055632;28;20029;-73
2022/02/24 06:15:24;;;;;;;12.77;3.40;;;;;;;7.24;82.12;101028.09;5054500;28;20055;-74
2022/02/24 06:17:49;;;;;;;10.38;2.38;;;;;;;7.20;82.02;101024.66;5055687;28;20491;-74
2022/02/24 06:20:15;;;;;;;12.25;2.85;;;;;;;7.19;82.41;101028.19;5056337;28;20029;-75
2022/02/24 06:22:40;;;;;;;10.52;2.88;;;;;;;7.24;82.34;101022.81;5055746;28;20472;-74
2022/02/24 06:25:06;;;;;;;11.45;2.85;;;;;;;7.25;82.80;101036.84;5054558;28;20114;-74
2022/02/24 06:27:31;;;;;;;10.88;2.40;;;;;;;7.26;82.62;101017.50;5050748;28;20040;-74
2022/02/24 06:29:58;;;;;;;10.82;2.50;;;;;;;7.30;82.48;101019.13;5050806;28;20036;-74
2022/02/24 06:32:23;;;;;;;8.30;2.17;;;;;;;7.30;82.43;101025.28;5046462;28;20083;-75
2022/02/24 06:34:48;;;;;;;13.63;2.75;;;;;;;7.27;82.64;101014.81;5048004;28;20476;-75
2022/02/24 06:37:14;;;;;;;9.93;2.55;;;;;;;7.29;82.67;101017.41;5055198;28;20072;-74
2022/02/24 06:39:39;;;;;;;14.85;3.78;;;;;;;7.33;82.83;101003.25;5055477;28;20023;-74
2022/02/24 06:42:04;;;;;;;10.23;2.38;;;;;;;7.31;82.68;101016.44;5054834;28;20048;-73
2022/02/24 06:44:31;;;;;;;11.60;2.47;;;;;;;7.35;82.64;101004.06;5055113;28;20361;-75
2022/02/24 06:46:56;;;;;;;18.17;2.70;;;;;;;7.41;81.96;101003.88;5054795;28;20120;-74
2022/02/24 06:49:21;;;;;;;14.85;2.85;;;;;;;7.38;82.22;100983.75;5055600;28;20424;-75
2022/02/24 06:51:47;;;;;;;10.40;2.75;;;;;;;7.35;82.14;100988.25;5055423;28;20523;-74
2022/02/24 06:54:13;;;;;;;13.02;3.08;;;;;;;7.40;81.72;100998.66;5053035;28;20036;-74
2022/02/24 06:56:38;;;;;;;13.57;2.63;;;;;;;7.40;81.96;100993.41;5055085;28;20037;-74
2022/02/24 06:59:03;;;;;;;11.13;2.33;;;;;;;7.37;81.94;100983.81;5046585;28;20108;-74
2022/02/24 07:01:30;;;;;;;16.02;2.90;;;;;;;7.35;82.24;100988.25;5038996;28;20039;-74
2022/02/24 07:03:55;;;;;;;14.88;3.33;;;;;;;7.39;81.82;100966.16;5054970;28;20472;-74
2022/02/24 07:06:20;;;;;;;11.57;3.08;;;;;;;7.42;81.70;100966.09;5055035;28;20025;-75
2022/02/24 07:08:46;;;;;;;12.00;2.92;;;;;;;7.42;81.83;100958.19;5030047;28;20491;-73
2022/02/24 07:11:11;;;;;;;10.88;3.05;;;;;;;7.42;81.75;100958.19;5054242;28;20032;-73
2022/02/24 07:13:37;;;;;;;7.88;2.35;;;;;;;7.44;81.75;100960.78;5054317;28;20025;-74
2022/02/24 07:16:02;;;;;;;13.95;3.17;;;;;;;7.46;81.42;100964.25;5054339;28;20036;-74
2022/02/24 07:18:27;;;;;;;11.90;2.55;;;;;;;7.50;81.61;100953.53;5054314;28;20377;-74
2022/02/24 07:20:54;;;;;;;16.40;3.30;;;;;;;7.54;81.57;100952.56;5053493;28;20029;-74
2022/02/24 07:23:21;;;;;;;11.43;3.00;;;;;;;7.53;81.47;100955.22;5054237;28;20090;-74
2022/02/24 07:25:46;;;;;;;15.40;3.42;;;;;;;7.53;81.17;100948.19;5054258;28;20028;-73
2022/02/24 07:28:11;;;;;;;20.17;3.83;;;;;;;7.59;81.65;100935.75;5054293;28;20021;-74
2022/02/24 07:30:38;;;;;;;17.20;3.03;;;;;;;7.57;81.32;100940.19;5049155;28;20133;-74
2022/02/24 07:33:04;;;;;;;12.82;3.30;;;;;;;7.58;81.48;100934.84;5035515;28;20108;-74
2022/02/24 07:35:30;;;;;;;11.30;3.35;;;;;;;7.58;81.40;100932.22;5047192;28;20029;-74
2022/02/24 07:37:55;;;;;;;13.25;3.15;;;;;;;7.59;81.36;100920.78;5052520;28;20029;-73
2022/02/24 07:40:20;;;;;;;25.92;5.45;;;;;;;7.58;81.86;100913.78;5053375;28;20116;-73
2022/02/24 07:42:46;;;;;;;14.60;2.55;;;;;;;7.60;81.57;100922.50;5053884;28;20029;-73
2022/02/24 07:45:12;;;;;;;6.53;2.50;;;;;;;7.63;81.46;100917.13;5053223;28;20036;-74
2022/02/24 07:47:38;;;;;;;15.95;3.17;;;;;;;7.61;81.64;100921.59;5053250;28;20033;-74
2022/02/24 07:50:05;;;;;;;10.38;2.60;;;;;;;7.60;81.81;100904.06;5052950;28;20033;-74
2022/02/24 07:52:30;;;;;;;7.28;2.85;;;;;;;7.63;81.82;100900.47;5051309;28;20028;-73
2022/02/24 07:54:55;;;;;;;11.98;2.35;;;;;;;7.62;81.56;100898.75;5043553;28;20166;-73
2022/02/24 07:57:21;;;;;;;14.50;3.42;;;;;;;7.62;81.72;100902.25;5047889;28;20404;-74
2022/02/24 07:59:47;;;;;;;10.30;2.55;;;;;;;7.64;82.01;100910.09;5033616;28;20465;-74
2022/02/24 08:02:12;;;;;;;25.08;5.80;;;;;;;7.68;82.01;100909.94;5036771;28;20115;-74
2022/02/24 08:04:38;;;;;;;18.20;4.88;;;;;;;7.75;81.16;100908.00;5047459;28;20033;-73
2022/02/24 08:07:03;;;;;;;20.48;4.30;;;;;;;7.76;81.43;100908.84;5052475;28;20021;-73
2022/02/24 08:09:29;;;;;;;25.17;5.55;;;;;;;7.75;81.64;100900.09;5050808;28;20025;-73
2022/02/24 08:14:38;;;;;;;11.10;2.58;;;;;;;7.66;82.06;100887.19;5047886;28;20090;-74
2022/02/24 08:17:04;;;;;;;11.75;3.05;;;;;;;7.69;82.23;100900.28;5046876;28;20028;-73
2022/02/24 08:19:30;;;;;;;11.02;2.78;;;;;;;7.69;82.59;100893.22;5039424;28;20028;-73
2022/02/24 08:21:55;;;;;;;13.48;3.05;;;;;;;7.71;82.34;100901.97;5052625;28;20031;-73
2022/02/24 08:24:20;;;;;;;16.52;3.35;;;;;;;7.81;82.38;100878.81;5052739;28;20044;-73
2022/02/24 08:26:46;;;;;;;17.23;3.67;;;;;;;7.92;81.55;100870.53;5053379;28;20083;-73
2022/02/24 08:29:11;;;;;;;24.63;6.75;;;;;;;8.00;80.95;100873.75;5049408;28;20025;-73
2022/02/24 08:31:37;;;;;;;11.32;2.50;;;;;;;7.93;80.99;100853.81;5049114;28;20033;-73
2022/02/24 08:34:02;;;;;;;7.18;2.35;;;;;;;7.91;81.03;100860.88;5052277;28;20025;-73
2022/02/24 08:36:28;;;;;;;8.25;2.25;;;;;;;7.85;81.15;100854.06;5052955;28;20041;-73
2022/02/24 08:38:53;;;;;;;17.55;2.75;;;;;;;7.88;80.62;100843.41;5052848;28;20025;-71
2022/02/24 08:41:18;;;;;;;11.27;2.95;;;;;;;7.88;80.90;100858.38;5064294;28;20044;-72
2022/02/24 08:43:44;;;;;;;12.02;2.47;;;;;;;7.93;80.64;100847.66;5063522;28;20491;-74
2022/02/24 08:46:09;;;;;;;10.02;3.00;;;;;;;7.92;80.53;100838.88;5049262;28;20029;-74
2022/02/24 08:48:35;;;;;;;10.90;2.92;;;;;;;7.90;80.55;100832.78;5049535;28;20107;-73
2022/02/24 08:51:00;;;;;;;7.20;2.17;;;;;;;7.84;80.17;100819.84;5053110;28;20056;-73
2022/02/24 08:53:25;;;;;;;10.10;2.28;;;;;;;7.86;80.46;100810.97;5052528;28;20711;-73
2022/02/24 08:55:50;;;;;;;10.27;2.88;;;;;;;7.98;80.58;100817.59;5072501;28;20028;-73
2022/02/24 08:58:16;;;;;;;13.65;2.72;;;;;;;8.05;79.52;100807.69;5072608;28;20059;-73
2022/02/24 09:00:47;;;;;;;11.93;2.53;;;;;;;8.12;79.49;100792.50;5072062;28;20102;-74
2022/02/24 09:03:13;;;;;;;14.55;2.50;;;;;;;8.16;79.48;100780.94;5072406;28;20035;-74
2022/02/24 09:05:39;;;;;;;16.33;2.95;;;;;;;8.22;78.83;100774.56;5062201;28;20037;-74
2022/02/24 09:08:04;;;;;;;9.48;2.33;;;;;;;8.14;79.04;100777.47;5052789;28;20086;-73
2022/02/24 09:10:30;;;;;;;13.35;2.97;;;;;;;8.26;78.54;100771.78;5052213;28;20120;-73
2022/02/24 09:12:56;;;;;;;10.77;3.10;;;;;;;8.44;77.97;100778.16;5048158;28;20490;-73
2022/02/24 09:15:21;;;;;;;18.05;3.10;;;;;;;8.58;77.51;100759.19;5051746;28;20029;-73
2022/02/24 09:17:48;;;;;;;14.35;3.28;;;;;;;8.99;76.30;100750.56;5052375;28;20433;-73
2022/02/24 09:20:13;;;;;;;8.23;3.03;;;;;;;9.05;75.04;100742.41;5043703;28;20033;-73
2022/02/24 09:22:38;;;;;;;11.20;3.17;;;;;;;8.99;75.10;100735.59;5052555;28;20033;-73
2022/02/24 09:25:05;;;;;;;12.27;2.63;;;;;;;8.96;74.95;100745.41;5052403;28;20020;-73
2022/02/24 09:27:30;;;;;;;14.82;2.58;;;;;;;8.87;75.39;100716.75;5052831;28;20103;-73
2022/02/24 09:29:56;;;;;;;13.60;3.10;;;;;;;9.27;75.01;100718.63;5051260;28;20054;-73
2022/02/24 09:32:22;;;;;;;12.52;3.10;;;;;;;9.59;72.84;100704.97;5052213;28;20056;-73
2022/02/24 09:34:47;;;;;;;14.30;3.03;;;;;;;10.05;72.27;100688.88;5052787;28;20542;-73
2022/02/24 09:37:12;;;;;;;8.05;2.70;;;;;;;10.67;67.95;100688.72;5048845;28;20033;-74
2022/02/24 09:39:38;;;;;;;11.63;2.50;;;;;;;10.74;67.76;100680.41;5052892;28;20056;-73
2022/02/24 09:42:03;;;;;;;10.35;2.92;;;;;;;10.84;67.86;100675.50;5051301;28;20037;-73
2022/02/24 09:44:29;;;;;;;11.85;2.88;;;;;;;11.17;65.57;100685.38;5035638;28;20034;-73
2022/02/24 09:46:55;;;;;;;12.80;2.83;;;;;;;11.45;64.44;100668.94;5032593;28;20087;-72
2022/02/24 09:49:26;;;;;;;11.05;3.00;;;;;;;11.49;63.05;100635.16;5051749;28;20028;-73
2022/02/24 09:51:51;;;;;;;9.32;2.85;;;;;;;12.34;61.59;100657.22;5051532;28;20025;-74
2022/02/24 09:54:16;;;;;;;15.40;3.38;;;;;;;12.64;59.90;100639.66;5051733;28;20109;-74
2022/02/24 09:56:43;;;;;;;11.32;3.05;;;;;;;12.92;58.89;100653.06;5052088;28;20029;-75
2022/02/24 09:59:09;;;;;;;11.50;3.05;;;;;;;13.43;57.28;100654.59;5049733;28;20052;-72
2022/02/24 10:01:39;;;;;;;14.30;3.10;;;;;;;13.28;57.19;100651.00;5048772;28;20111;-73
2022/02/24 10:04:05;;;;;;;14.55;3.58;;;;;;;12.59;59.76;100622.16;5045731;28;20439;-73
2022/02/24 10:06:38;;;;;;;13.25;3.33;;;;;;;12.11;60.84;100624.84;5050516;28;20116;-72
2022/02/24 10:09:05;;;;;;;8.13;2.78;;;;;;;12.53;60.37;100617.22;5040344;28;20063;-73
2022/02/24 10:11:34;;;;;;;14.52;3.35;;;;;;;12.83;58.71;100613.75;5051387;28;20079;-73
2022/02/24 10:14:11;;;;;;;12.73;3.70;;;;;;;12.97;58.30;100615.59;5051734;28;20434;-73
2022/02/24 10:16:59;;;;;;;11.50;3.33;;;;;;;12.46;58.98;100602.56;5054251;28;20056;-73
2022/02/24 10:19:45;;;;;;;15.73;2.78;;;;;;;11.98;62.00;100605.19;5055469;28;20032;-73
2022/02/24 10:22:26;;;;;;;14.23;3.85;;;;;;;12.16;61.39;100566.19;5055001;28;20017;-74
2022/02/24 10:24:59;;;;;;;10.23;2.90;;;;;;;12.43;60.01;100584.16;5054944;28;20523;-73
2022/02/24 10:27:39;;;;;;;11.18;2.90;;;;;;;11.61;62.99;100594.75;5055511;28;20116;-73
2022/02/24 10:30:09;;;;;;;12.38;3.20;;;;;;;10.66;66.31;100597.81;5054016;28;20021;-73
2022/02/24 10:32:39;;;;;;;11.05;3.25;;;;;;;10.09;68.72;100590.78;5039085;28;20071;-73
2022/02/24 10:35:40;;;;;;;13.38;3.70;;;;;;;10.17;69.72;100588.63;5055038;28;20468;-72
2022/02/24 10:38:11;;;;;;;14.43;4.45;;;;;;;9.85;71.38;100587.47;5052106;28;20867;-74
2022/02/24 10:40:47;;;;;;;18.17;4.40;;;;;;;9.65;72.02;100583.09;5049954;28;20080;-74
2022/02/24 10:43:12;;;;;;;12.48;3.60;;;;;;;9.45;73.46;100576.91;5042962;28;20024;-73
2022/02/24 10:45:38;;;;;;;13.32;3.60;;;;;;;9.59;72.78;100576.31;5054496;28;20359;-73
2022/02/24 10:48:05;;;;;;;9.73;3.45;;;;;;;9.66;72.43;100600.69;5055053;28;20056;-72
2022/02/24 10:50:53;;;;;;;13.80;3.30;;;;;;;9.61;71.95;100561.22;5054337;28;20040;-73
2022/02/24 10:53:21;;;;;;;10.75;3.45;;;;;;;9.63;71.98;100542.63;5054066;28;20033;-72
2022/02/24 10:56:01;;;;;;;11.45;2.95;;;;;;;9.71;72.57;100535.22;5054326;28;20060;-73
2022/02/24 10:58:29;;;;;;;16.33;3.53;;;;;;;9.76;71.62;100541.16;5054229;28;20286;-72
2022/02/24 11:01:06;;;;;;;16.83;4.32;;;;;;;9.77;72.43;100524.38;5053565;28;20021;-72
2022/02/24 11:03:32;;;;;;;10.75;3.63;;;;;;;9.81;71.99;100527.72;5054273;28;20037;-73
2022/02/24 11:05:59;;;;;;;16.33;3.38;;;;;;;9.88;71.91;100521.22;5053894;28;20028;-73
2022/02/24 11:08:26;;;;;;;14.57;4.07;;;;;;;9.84;71.86;100523.13;5053730;28;20028;-73
2022/02/24 11:10:54;;;;;;;10.70;3.03;;;;;;;9.67;72.59;100523.94;5049655;28;20040;-74
2022/02/24 11:13:20;;;;;;;8.65;2.63;;;;;;;9.63;72.71;100501.22;5050107;28;20052;-73
2022/02/24 11:15:46;;;;;;;12.10;3.45;;;;;;;9.56;74.38;100507.69;5052103;28;20377;-73
2022/02/24 11:18:13;;;;;;;15.45;3.58;;;;;;;9.45;76.20;100518.78;5051901;28;20048;-73
2022/02/24 11:20:38;;;;;;;12.65;3.20;;;;;;;9.26;77.19;100499.38;5047242;28;20041;-73
2022/02/24 11:23:05;;;;;;;13.13;3.55;;;;;;;9.19;79.17;100498.78;5051725;28;20248;-72
2022/02/24 11:25:34;;;;;;;14.25;4.22;;;;;;;9.13;79.22;100468.25;5049345;28;20036;-73